Time;durP1;ratioP1;P1;durP2;ratioP2;P2;SDS_P1;SDS_P2;PMS_P1;PMS_P2;Temp;Humidity;BMP_temperature;BMP_pressure;BME280_temperature;BME280_humidity;BME280_pressure;Samples;Min_cycle;Max_cycle;Signal;HPM_P1;HPM_P2
2024/01/22 00:00:58;;;;;;;5.65;3.55;;;;;;;;;;5072880;28;20025;-66
2024/01/22 00:03:24;;;;;;;8.05;3.50;;;;;;;;;;5072694;28;20016;-66
2024/01/22 00:05:49;;;;;;;6.90;3.53;;;;;;;;;;5072599;28;20107;-66
2024/01/22 00:08:14;;;;;;;6.28;3.50;;;;;;;;;;5072050;28;20476;-66
2024/01/22 00:10:40;;;;;;;6.00;3.58;;;;;;;;;;5072860;28;20533;-66
2024/01/22 00:13:05;;;;;;;5.65;3.28;;;;;;;;;;5075426;28;20020;-66
2024/01/22 00:15:32;;;;;;;6.45;3.65;;;;;;;;;;5064185;28;20467;-66
2024/01/22 00:17:57;;;;;;;4.80;3.28;;;;;;;;;;5075129;28;20028;-66
2024/01/22 00:20:23;;;;;;;5.97;3.90;;;;;;;;;;5062721;28;20356;-66
2024/01/22 00:22:48;;;;;;;7.10;3.65;;;;;;;;;;5072668;28;20486;-66
2024/01/22 00:25:14;;;;;;;8.23;3.70;;;;;;;;;;5072453;28;20457;-66
2024/01/22 00:27:39;;;;;;;4.68;1.95;;;;;;;;;;5072593;28;20589;-66
2024/01/22 00:30:06;;;;;;;5.07;3.47;;;;;;;;;;5072537;28;20020;-66
2024/01/22 00:32:31;;;;;;;6.13;3.30;;;;;;;;;;5072716;28;20025;-67
2024/01/22 00:34:57;;;;;;;6.97;2.83;;;;;;;;;;5072316;28;20017;-66
2024/01/22 00:37:22;;;;;;;5.88;2.90;;;;;;;;;;5072551;28;20029;-66
2024/01/22 00:39:48;;;;;;;4.38;2.97;;;;;;;;;;5072594;28;20095;-66
2024/01/22 00:42:13;;;;;;;7.32;3.20;;;;;;;;;;5072458;28;20012;-66
2024/01/22 00:44:39;;;;;;;8.25;3.72;;;;;;;;;;5071989;28;20029;-66
2024/01/22 00:47:04;;;;;;;6.78;3.55;;;;;;;;;;5072304;28;20025;-65
2024/01/22 00:49:30;;;;;;;5.13;3.35;;;;;;;;;;5072112;28;20463;-66
2024/01/22 00:51:56;;;;;;;5.72;3.45;;;;;;;;;;5072223;28;20013;-66
2024/01/22 00:54:21;;;;;;;7.10;4.30;;;;;;;;;;5072088;28;20036;-67
2024/01/22 00:56:46;;;;;;;6.43;3.60;;;;;;;;;;5072102;28;20032;-67
2024/01/22 00:59:12;;;;;;;5.90;3.17;;;;;;;;;;5072184;28;20078;-67
2024/01/22 01:01:37;;;;;;;6.78;3.80;;;;;;;;;;5072000;28;20099;-66
2024/01/22 01:04:03;;;;;;;5.63;3.17;;;;;;;;;;5072048;28;20025;-67
2024/01/22 01:06:29;;;;;;;5.70;3.10;;;;;;;;;;5072010;28;20035;-67
2024/01/22 01:08:54;;;;;;;6.72;3.40;;;;;;;;;;5072274;28;20040;-68
2024/01/22 01:11:19;;;;;;;9.00;3.90;;;;;;;;;;5072332;28;20487;-67
2024/01/22 01:13:45;;;;;;;9.35;3.88;;;;;;;;;;5072411;28;20359;-66
2024/01/22 01:16:10;;;;;;;9.48;3.42;;;;;;;;;;5072456;28;20036;-67
2024/01/22 01:18:36;;;;;;;7.10;3.72;;;;;;;;;;5072196;28;20495;-67
2024/01/22 01:21:01;;;;;;;6.70;4.18;;;;;;;;;;5072306;28;20029;-66
2024/01/22 01:23:26;;;;;;;6.32;4.10;;;;;;;;;;5072252;28;20498;-67
2024/01/22 01:25:52;;;;;;;7.97;3.20;;;;;;;;;;5054155;28;20025;-67
2024/01/22 01:28:17;;;;;;;5.63;3.08;;;;;;;;;;5072317;28;20035;-67
2024/01/22 01:30:43;;;;;;;8.27;3.70;;;;;;;;;;5072154;28;20025;-67
2024/01/22 01:33:08;;;;;;;6.10;3.70;;;;;;;;;;5075372;28;20025;-67
2024/01/22 01:35:33;;;;;;;6.80;3.47;;;;;;;;;;5076319;28;20051;-67
2024/01/22 01:37:59;;;;;;;5.47;3.08;;;;;;;;;;5076165;28;20021;-67
2024/01/22 01:40:24;;;;;;;5.90;3.17;;;;;;;;;;5076080;28;20499;-67
2024/01/22 01:42:50;;;;;;;5.45;3.65;;;;;;;;;;5076005;28;20039;-67
2024/01/22 01:45:15;;;;;;;4.10;2.72;;;;;;;;;;5075585;28;20103;-67
2024/01/22 01:47:49;;;;;;;6.53;3.78;;;;;;;;;;5075922;28;20031;-66
2024/01/22 01:50:16;;;;;;;7.25;4.22;;;;;;;;;;5076135;28;20500;-67
2024/01/22 01:52:43;;;;;;;8.23;3.65;;;;;;;;;;5075587;28;20020;-67
2024/01/22 01:55:09;;;;;;;5.38;3.03;;;;;;;;;;5075905;28;20029;-67
2024/01/22 01:57:37;;;;;;;4.47;2.67;;;;;;;;;;5075704;28;20025;-67
2024/01/22 02:00:05;;;;;;;7.53;3.85;;;;;;;;;;5075537;28;20044;-67
2024/01/22 02:02:31;;;;;;;5.95;3.47;;;;;;;;;;5075498;28;20024;-66
2024/01/22 02:04:56;;;;;;;4.68;3.00;;;;;;;;;;5075645;28;20046;-66
2024/01/22 02:07:22;;;;;;;6.88;3.78;;;;;;;;;;5075698;28;20530;-67
2024/01/22 02:09:48;;;;;;;6.85;3.80;;;;;;;;;;5075596;28;20047;-67
2024/01/22 02:12:18;;;;;;;7.72;3.72;;;;;;;;;;5075555;28;20028;-67
2024/01/22 02:14:44;;;;;;;7.05;3.08;;;;;;;;;;5075549;28;20027;-67
2024/01/22 02:17:09;;;;;;;4.70;2.78;;;;;;;;;;5075259;28;20024;-67
2024/01/22 02:19:35;;;;;;;7.25;3.92;;;;;;;;;;5075399;28;20070;-67
2024/01/22 02:22:00;;;;;;;4.10;2.72;;;;;;;;;;5075118;28;20032;-67
2024/01/22 02:24:26;;;;;;;6.28;3.70;;;;;;;;;;5057320;28;20464;-66
2024/01/22 02:26:51;;;;;;;7.63;4.03;;;;;;;;;;5075269;28;20109;-67
2024/01/22 02:29:17;;;;;;;5.55;3.38;;;;;;;;;;5075238;28;20031;-67
2024/01/22 02:31:42;;;;;;;6.28;3.53;;;;;;;;;;5075065;28;20434;-67
2024/01/22 02:34:08;;;;;;;5.90;2.97;;;;;;;;;;5075154;28;20021;-67
2024/01/22 02:36:33;;;;;;;5.18;3.15;;;;;;;;;;5075056;28;20028;-67
2024/01/22 02:38:59;;;;;;;6.30;3.47;;;;;;;;;;5075258;28;20082;-67
2024/01/22 02:41:24;;;;;;;5.82;3.60;;;;;;;;;;5074935;28;20020;-67
2024/01/22 02:43:49;;;;;;;5.63;3.42;;;;;;;;;;5073645;28;20017;-67
2024/01/22 02:46:16;;;;;;;6.20;3.35;;;;;;;;;;5074507;28;20120;-67
2024/01/22 02:48:42;;;;;;;4.05;2.45;;;;;;;;;;5074934;28;20074;-67
2024/01/22 02:51:10;;;;;;;6.18;3.60;;;;;;;;;;5074696;28;20032;-67
2024/01/22 02:53:36;;;;;;;4.25;2.92;;;;;;;;;;5074613;28;20052;-67
2024/01/22 02:56:02;;;;;;;6.80;3.53;;;;;;;;;;5074734;28;20498;-67
2024/01/22 02:58:28;;;;;;;7.03;3.00;;;;;;;;;;5074735;28;20100;-67
2024/01/22 03:00:54;;;;;;;4.90;3.13;;;;;;;;;;5074322;28;20028;-67
2024/01/22 03:03:19;;;;;;;6.18;2.88;;;;;;;;;;5074552;28;20024;-67
2024/01/22 03:05:45;;;;;;;5.75;3.00;;;;;;;;;;5074403;28;20025;-67
2024/01/22 03:08:10;;;;;;;5.47;3.20;;;;;;;;;;5074575;28;20034;-68
2024/01/22 03:10:36;;;;;;;7.43;3.15;;;;;;;;;;5074376;28;20163;-67
2024/01/22 03:13:01;;;;;;;4.45;2.60;;;;;;;;;;5074587;28;20016;-67
2024/01/22 03:15:26;;;;;;;6.47;2.80;;;;;;;;;;5074243;28;20502;-67
2024/01/22 03:17:52;;;;;;;6.35;2.90;;;;;;;;;;5074311;28;20537;-66
2024/01/22 03:20:17;;;;;;;6.07;2.95;;;;;;;;;;5074425;28;20107;-67
2024/01/22 03:22:43;;;;;;;8.27;3.25;;;;;;;;;;5074097;28;20037;-67
2024/01/22 03:25:08;;;;;;;4.47;2.88;;;;;;;;;;5074065;28;20025;-67
2024/01/22 03:27:34;;;;;;;7.65;2.90;;;;;;;;;;5074216;28;20418;-67
2024/01/22 03:29:59;;;;;;;5.53;2.85;;;;;;;;;;5073805;28;20055;-67
2024/01/22 03:32:27;;;;;;;4.57;2.70;;;;;;;;;;5074167;28;20028;-67
2024/01/22 03:34:52;;;;;;;5.75;3.05;;;;;;;;;;5073794;28;20028;-67
2024/01/22 03:37:18;;;;;;;5.00;2.88;;;;;;;;;;5073999;28;20035;-67
2024/01/22 03:39:43;;;;;;;4.72;2.88;;;;;;;;;;5073976;28;20165;-68
2024/01/22 03:42:11;;;;;;;5.05;2.88;;;;;;;;;;5073904;28;20020;-67
2024/01/22 03:44:37;;;;;;;5.78;2.95;;;;;;;;;;5073311;28;20029;-67
2024/01/22 03:47:03;;;;;;;3.38;2.40;;;;;;;;;;5060248;28;20087;-67
2024/01/22 03:49:29;;;;;;;3.75;2.40;;;;;;;;;;5053688;28;20488;-67
2024/01/22 03:51:56;;;;;;;4.47;2.50;;;;;;;;;;5053683;28;20135;-67
2024/01/22 03:54:22;;;;;;;6.35;3.40;;;;;;;;;;5068316;28;20128;-67
2024/01/22 03:56:47;;;;;;;5.00;2.40;;;;;;;;;;5073636;28;20115;-67
2024/01/22 03:59:13;;;;;;;7.28;3.00;;;;;;;;;;5073207;28;20024;-68
2024/01/22 04:01:38;;;;;;;4.45;2.65;;;;;;;;;;5073426;28;20047;-67
2024/01/22 04:04:04;;;;;;;6.57;3.38;;;;;;;;;;5073083;28;20070;-67
2024/01/22 04:06:29;;;;;;;3.80;2.22;;;;;;;;;;5073360;28;20070;-67
2024/01/22 04:08:55;;;;;;;5.00;2.70;;;;;;;;;;5073250;28;20368;-67
2024/01/22 04:11:20;;;;;;;5.82;2.60;;;;;;;;;;5073306;28;20187;-67
2024/01/22 04:13:46;;;;;;;3.80;2.53;;;;;;;;;;5073118;28;20093;-67
2024/01/22 04:16:13;;;;;;;3.40;2.35;;;;;;;;;;5073052;28;20032;-67
2024/01/22 04:18:42;;;;;;;6.22;2.80;;;;;;;;;;5073119;28;20040;-67
2024/01/22 04:21:08;;;;;;;4.80;2.38;;;;;;;;;;5055048;28;20028;-67
2024/01/22 04:23:34;;;;;;;5.20;2.53;;;;;;;;;;5072569;28;20047;-67
2024/01/22 04:26:01;;;;;;;4.55;2.45;;;;;;;;;;5072865;28;20115;-68
2024/01/22 04:28:26;;;;;;;5.80;2.63;;;;;;;;;;5072835;28;20488;-67
2024/01/22 04:30:51;;;;;;;5.50;2.85;;;;;;;;;;5072862;28;20048;-68
2024/01/22 04:33:17;;;;;;;5.25;2.83;;;;;;;;;;5072866;28;20020;-68
2024/01/22 04:35:42;;;;;;;3.38;2.30;;;;;;;;;;5072990;28;20028;-67
2024/01/22 04:38:08;;;;;;;4.10;2.30;;;;;;;;;;5072841;28;20023;-67
2024/01/22 04:40:34;;;;;;;3.63;2.28;;;;;;;;;;5072579;28;20036;-67
2024/01/22 04:42:59;;;;;;;4.13;2.70;;;;;;;;;;5072610;28;20146;-66
2024/01/22 04:45:25;;;;;;;4.28;2.50;;;;;;;;;;5072307;28;20353;-67
2024/01/22 04:47:50;;;;;;;5.13;2.47;;;;;;;;;;5072677;28;20059;-67
2024/01/22 04:50:16;;;;;;;4.22;2.60;;;;;;;;;;5072626;28;20081;-68
2024/01/22 04:52:41;;;;;;;6.57;2.90;;;;;;;;;;5072528;28;20024;-68
2024/01/22 04:55:07;;;;;;;4.25;2.95;;;;;;;;;;5072543;28;20028;-67
2024/01/22 04:57:32;;;;;;;5.00;2.63;;;;;;;;;;5072426;28;20034;-68
2024/01/22 04:59:58;;;;;;;4.22;2.65;;;;;;;;;;5072385;28;20044;-68
2024/01/22 05:02:27;;;;;;;5.75;3.17;;;;;;;;;;5072578;28;20026;-68
2024/01/22 05:05:00;;;;;;;5.97;2.92;;;;;;;;;;5072368;28;20411;-68
2024/01/22 05:07:26;;;;;;;3.92;2.65;;;;;;;;;;5071726;28;20020;-68
2024/01/22 05:10:04;;;;;;;5.25;2.70;;;;;;;;;;5072156;28;20032;-69
2024/01/22 05:12:30;;;;;;;7.90;2.85;;;;;;;;;;5072604;28;20037;-67
2024/01/22 05:14:56;;;;;;;5.50;2.78;;;;;;;;;;5072477;28;20081;-67
2024/01/22 05:17:21;;;;;;;6.82;3.20;;;;;;;;;;5072391;28;20496;-67
2024/01/22 05:19:47;;;;;;;6.40;3.08;;;;;;;;;;5072237;28;20036;-67
2024/01/22 05:22:13;;;;;;;8.95;3.20;;;;;;;;;;5072498;28;20025;-67
2024/01/22 05:24:38;;;;;;;7.05;3.53;;;;;;;;;;5071952;28;20029;-67
2024/01/22 05:27:04;;;;;;;4.95;3.08;;;;;;;;;;5072205;28;20029;-68
2024/01/22 05:29:30;;;;;;;4.95;3.28;;;;;;;;;;5072075;28;20025;-67
2024/01/22 05:31:55;;;;;;;6.00;2.92;;;;;;;;;;5072078;28;20031;-68
2024/01/22 05:34:21;;;;;;;5.78;2.80;;;;;;;;;;5054240;28;20531;-67
2024/01/22 05:36:46;;;;;;;4.28;2.70;;;;;;;;;;5072232;28;20107;-68
2024/01/22 05:39:12;;;;;;;5.25;3.70;;;;;;;;;;5071859;28;20017;-67
2024/01/22 05:41:39;;;;;;;7.10;3.70;;;;;;;;;;5071959;28;20074;-68
2024/01/22 05:44:05;;;;;;;8.27;4.43;;;;;;;;;;5072004;28;20021;-67
2024/01/22 05:46:30;;;;;;;8.85;4.07;;;;;;;;;;5071553;28;20047;-67
2024/01/22 05:48:56;;;;;;;4.53;3.03;;;;;;;;;;5072025;28;20127;-68
2024/01/22 05:51:21;;;;;;;6.68;3.50;;;;;;;;;;5072071;28;20356;-67
2024/01/22 05:53:47;;;;;;;4.25;2.88;;;;;;;;;;5071620;28;20048;-68
2024/01/22 05:56:25;;;;;;;12.32;3.20;;;;;;;;;;5072013;28;20054;-68
2024/01/22 05:58:56;;;;;;;7.30;3.53;;;;;;;;;;5071847;28;20024;-68
2024/01/22 06:01:23;;;;;;;5.40;3.15;;;;;;;;;;5071871;28;20051;-68
2024/01/22 06:03:48;;;;;;;5.80;2.92;;;;;;;;;;5071808;28;20059;-68
2024/01/22 06:06:14;;;;;;;7.10;3.80;;;;;;;;;;5071854;28;20454;-68
2024/01/22 06:08:44;;;;;;;8.48;3.13;;;;;;;;;;5071634;28;20029;-68
2024/01/22 06:11:14;;;;;;;5.60;3.58;;;;;;;;;;5071575;28;20052;-69
2024/01/22 06:13:41;;;;;;;21.58;2.70;;;;;;;;;;5071759;28;20036;-68
2024/01/22 06:16:10;;;;;;;5.50;2.78;;;;;;;;;;5071837;28;20041;-69
2024/01/22 06:18:37;;;;;;;6.57;3.47;;;;;;;;;;5073901;28;20360;-68
2024/01/22 06:21:04;;;;;;;6.50;3.35;;;;;;;;;;5075443;28;20071;-68
2024/01/22 06:23:30;;;;;;;7.15;3.60;;;;;;;;;;5075100;28;20036;-68
2024/01/22 06:25:56;;;;;;;3.33;1.77;;;;;;;;;;5075187;28;20036;-68
2024/01/22 06:28:23;;;;;;;53.20;4.65;;;;;;;;;;5075255;28;20032;-68
2024/01/22 06:30:48;;;;;;;4.32;2.90;;;;;;;;;;5074853;28;20020;-68
2024/01/22 06:33:14;;;;;;;4.25;2.78;;;;;;;;;;5075003;28;20356;-68
2024/01/22 06:35:39;;;;;;;4.30;2.47;;;;;;;;;;5075097;28;20016;-68
2024/01/22 06:38:05;;;;;;;3.95;2.38;;;;;;;;;;5074735;28;20375;-68
2024/01/22 06:40:33;;;;;;;5.25;2.53;;;;;;;;;;5074957;28;20044;-68
2024/01/22 06:42:58;;;;;;;6.22;2.22;;;;;;;;;;5056995;28;20087;-67
2024/01/22 06:45:23;;;;;;;3.63;2.20;;;;;;;;;;5074543;28;20052;-68
2024/01/22 06:47:49;;;;;;;4.40;2.55;;;;;;;;;;5074942;28;20024;-68
2024/01/22 06:50:14;;;;;;;4.25;2.35;;;;;;;;;;5074756;28;20527;-68
2024/01/22 06:52:40;;;;;;;4.70;2.53;;;;;;;;;;5074419;28;20059;-67
2024/01/22 06:55:07;;;;;;;5.97;2.60;;;;;;;;;;5074902;28;20392;-68
2024/01/22 06:57:32;;;;;;;4.53;2.90;;;;;;;;;;5074776;28;20467;-68
2024/01/22 06:59:59;;;;;;;4.63;2.50;;;;;;;;;;5074532;28;20013;-67
2024/01/22 07:02:27;;;;;;;5.90;2.67;;;;;;;;;;5074677;28;20024;-68
2024/01/22 07:04:55;;;;;;;4.47;2.90;;;;;;;;;;5074470;28;20021;-68
2024/01/22 07:07:21;;;;;;;3.55;2.35;;;;;;;;;;5074349;28;20521;-68
2024/01/22 07:09:46;;;;;;;6.95;3.20;;;;;;;;;;5074351;28;20100;-67
2024/01/22 07:12:12;;;;;;;5.38;2.95;;;;;;;;;;5074344;28;20098;-68
2024/01/22 07:14:37;;;;;;;3.00;1.92;;;;;;;;;;5074433;28;20098;-68
2024/01/22 07:17:03;;;;;;;3.00;2.08;;;;;;;;;;5074317;28;20163;-68
2024/01/22 07:19:28;;;;;;;8.60;2.78;;;;;;;;;;5074187;28;20029;-68
2024/01/22 07:21:54;;;;;;;7.78;2.80;;;;;;;;;;5073902;28;20032;-67
2024/01/22 07:24:20;;;;;;;3.53;2.15;;;;;;;;;;5074338;28;20025;-68
2024/01/22 07:26:46;;;;;;;5.80;2.17;;;;;;;;;;5074096;28;20033;-68
2024/01/22 07:29:12;;;;;;;3.95;2.28;;;;;;;;;;5072962;28;20040;-68
2024/01/22 07:31:37;;;;;;;3.83;2.60;;;;;;;;;;5074142;28;20059;-68
2024/01/22 07:34:03;;;;;;;4.65;3.03;;;;;;;;;;5074100;28;20020;-67
2024/01/22 07:36:28;;;;;;;3.40;2.20;;;;;;;;;;5073822;28;20024;-68
2024/01/22 07:38:56;;;;;;;5.82;2.58;;;;;;;;;;5073979;28;20028;-68
2024/01/22 07:41:21;;;;;;;3.50;2.05;;;;;;;;;;5073803;28;20032;-68
2024/01/22 07:43:47;;;;;;;3.88;2.20;;;;;;;;;;5073630;28;20475;-68
2024/01/22 07:46:13;;;;;;;6.50;2.58;;;;;;;;;;5072918;28;20028;-68
2024/01/22 07:48:39;;;;;;;5.22;2.30;;;;;;;;;;5086907;28;20024;-68
2024/01/22 07:51:05;;;;;;;3.90;2.50;;;;;;;;;;5059667;28;20021;-67
2024/01/22 07:53:30;;;;;;;3.90;2.38;;;;;;;;;;5084910;28;20049;-68
2024/01/22 07:55:56;;;;;;;9.10;2.20;;;;;;;;;;5064974;28;20031;-68
2024/01/22 07:58:21;;;;;;;3.65;2.03;;;;;;;;;;5072847;28;20027;-68
2024/01/22 08:00:47;;;;;;;5.70;1.80;;;;;;;;;;5072365;28;20040;-68
2024/01/22 08:03:12;;;;;;;3.83;2.42;;;;;;;;;;5075714;28;20101;-68
2024/01/22 08:05:38;;;;;;;3.83;1.98;;;;;;;;;;5092912;28;20387;-68
2024/01/22 08:08:04;;;;;;;4.70;1.90;;;;;;;;;;5093284;28;20478;-68
2024/01/22 08:10:29;;;;;;;3.20;2.10;;;;;;;;;;5089218;28;20371;-68
2024/01/22 08:12:54;;;;;;;3.72;2.40;;;;;;;;;;5072827;28;20082;-68
2024/01/22 08:15:20;;;;;;;3.58;2.08;;;;;;;;;;5054989;28;20416;-68
2024/01/22 08:17:48;;;;;;;4.50;2.28;;;;;;;;;;5072943;28;20426;-68
2024/01/22 08:20:13;;;;;;;4.20;2.20;;;;;;;;;;5071540;28;20536;-68
2024/01/22 08:22:40;;;;;;;3.83;2.03;;;;;;;;;;5046047;28;20113;-68
2024/01/22 08:25:06;;;;;;;13.57;2.50;;;;;;;;;;5058801;28;20107;-68
2024/01/22 08:27:31;;;;;;;3.00;1.98;;;;;;;;;;5072624;28;20100;-68
2024/01/22 08:29:57;;;;;;;6.18;2.30;;;;;;;;;;5072496;28;20025;-68
2024/01/22 08:32:23;;;;;;;4.95;2.20;;;;;;;;;;5072516;28;20023;-68
2024/01/22 08:34:48;;;;;;;6.32;2.30;;;;;;;;;;5072383;28;20111;-67
2024/01/22 08:37:14;;;;;;;3.55;2.38;;;;;;;;;;5072592;28;20111;-67
2024/01/22 08:39:39;;;;;;;7.10;2.50;;;;;;;;;;5072468;28;20020;-68
2024/01/22 08:42:05;;;;;;;4.15;2.00;;;;;;;;;;5070979;28;20027;-66
2024/01/22 08:44:30;;;;;;;3.05;1.70;;;;;;;;;;5069119;28;20036;-68
2024/01/22 08:46:56;;;;;;;5.25;2.58;;;;;;;;;;5071762;28;20158;-68
2024/01/22 08:49:22;;;;;;;8.55;2.40;;;;;;;;;;5071564;28;20051;-67
2024/01/22 08:51:47;;;;;;;4.20;1.98;;;;;;;;;;5071896;28;20444;-68
2024/01/22 08:54:12;;;;;;;8.80;2.38;;;;;;;;;;5078777;28;20505;-66
2024/01/22 08:56:38;;;;;;;6.50;3.03;;;;;;;;;;5074810;28;20028;-65
2024/01/22 08:59:03;;;;;;;4.05;2.05;;;;;;;;;;5072109;28;20032;-66
2024/01/22 09:01:29;;;;;;;5.13;2.42;;;;;;;;;;5072247;28;20067;-65
2024/01/22 09:03:54;;;;;;;4.32;2.40;;;;;;;;;;5072170;28;20020;-66
2024/01/22 09:06:20;;;;;;;6.18;2.45;;;;;;;;;;5071924;28;20482;-66
2024/01/22 09:08:45;;;;;;;5.43;2.38;;;;;;;;;;5072192;28;20036;-66
2024/01/22 09:11:11;;;;;;;2.65;1.85;;;;;;;;;;5072300;28;20035;-67
2024/01/22 09:13:40;;;;;;;3.25;2.10;;;;;;;;;;5072185;28;20032;-67
2024/01/22 09:16:06;;;;;;;3.40;1.67;;;;;;;;;;5072252;28;20032;-67
2024/01/22 09:18:31;;;;;;;4.63;2.08;;;;;;;;;;5071879;28;20120;-67
2024/01/22 09:20:57;;;;;;;2.90;2.22;;;;;;;;;;5072144;28;20052;-67
2024/01/22 09:23:22;;;;;;;4.03;1.88;;;;;;;;;;5063373;28;20172;-67
2024/01/22 09:25:48;;;;;;;6.57;1.80;;;;;;;;;;5051972;28;20025;-67
2024/01/22 09:28:18;;;;;;;4.20;1.70;;;;;;;;;;5051814;28;20029;-67
2024/01/22 09:30:44;;;;;;;;;;;;;;;;;;5070823;28;20020;-67
2024/01/22 09:33:09;;;;;;;2.03;1.50;;;;;;;;;;5071743;28;19912;-67
2024/01/22 09:35:36;;;;;;;2.95;1.70;;;;;;;;;;5072038;28;20032;-67
2024/01/22 09:38:01;;;;;;;3.05;1.85;;;;;;;;;;5072047;28;20056;-67
2024/01/22 09:40:33;;;;;;;3.38;1.80;;;;;;;;;;5071950;28;20059;-67
2024/01/22 09:43:03;;;;;;;3.83;1.80;;;;;;;;;;5071878;28;20028;-67
2024/01/22 09:45:29;;;;;;;2.88;1.65;;;;;;;;;;5071382;28;20537;-67
2024/01/22 09:47:54;;;;;;;2.55;1.60;;;;;;;;;;5053739;28;20111;-67
2024/01/22 09:50:20;;;;;;;3.42;1.92;;;;;;;;;;5056875;28;20035;-67
2024/01/22 09:52:50;;;;;;;3.28;2.05;;;;;;;;;;5052641;28;20021;-67
2024/01/22 09:55:16;;;;;;;4.50;2.05;;;;;;;;;;5055851;28;20188;-67
2024/01/22 09:57:44;;;;;;;5.95;2.17;;;;;;;;;;5062410;28;20123;-68
2024/01/22 10:00:12;;;;;;;6.93;2.30;;;;;;;;;;5075246;28;20020;-67
2024/01/22 10:02:40;;;;;;;3.25;2.38;;;;;;;;;;5075384;28;20029;-68
2024/01/22 10:05:07;;;;;;;5.97;2.20;;;;;;;;;;5075239;28;20020;-67
2024/01/22 10:07:33;;;;;;;4.25;2.17;;;;;;;;;;5075563;28;20027;-68
2024/01/22 10:09:58;;;;;;;3.38;2.05;;;;;;;;;;5075422;28;20546;-67
2024/01/22 10:12:23;;;;;;;7.88;2.40;;;;;;;;;;5075217;28;20035;-67
2024/01/22 10:14:49;;;;;;;3.40;1.88;;;;;;;;;;5075106;28;20025;-67
2024/01/22 10:17:16;;;;;;;4.15;2.20;;;;;;;;;;5075150;28;20021;-67
2024/01/22 10:19:42;;;;;;;3.72;1.90;;;;;;;;;;5090717;28;20028;-67
2024/01/22 10:22:08;;;;;;;4.22;1.92;;;;;;;;;;5075266;28;20387;-67
2024/01/22 10:24:34;;;;;;;2.20;1.40;;;;;;;;;;5074852;28;20044;-67
2024/01/22 10:27:17;;;;;;;2.55;1.60;;;;;;;;;;5074871;28;20115;-67
2024/01/22 10:29:45;;;;;;;2.20;1.30;;;;;;;;;;5074754;28;20363;-67
2024/01/22 10:32:11;;;;;;;2.70;1.58;;;;;;;;;;5075009;28;20024;-67
2024/01/22 10:34:42;;;;;;;2.65;1.80;;;;;;;;;;5074791;28;20024;-67
2024/01/22 10:37:13;;;;;;;1.95;1.40;;;;;;;;;;5074748;28;20035;-67
2024/01/22 10:39:40;;;;;;;3.70;1.35;;;;;;;;;;5074712;28;20031;-67
2024/01/22 10:42:14;;;;;;;3.00;1.30;;;;;;;;;;5074816;28;20031;-67
2024/01/22 10:44:45;;;;;;;2.30;1.40;;;;;;;;;;5074219;28;20052;-67
2024/01/22 10:47:11;;;;;;;3.80;1.45;;;;;;;;;;5074262;28;20024;-67
2024/01/22 10:49:37;;;;;;;3.15;1.77;;;;;;;;;;5074520;28;20155;-67
2024/01/22 10:52:04;;;;;;;2.40;1.40;;;;;;;;;;5074766;28;20074;-67
2024/01/22 10:54:34;;;;;;;1.92;1.08;;;;;;;;;;5074380;28;20457;-67
2024/01/22 10:57:19;;;;;;;2.17;1.35;;;;;;;;;;5073341;28;20028;-67
2024/01/22 10:59:48;;;;;;;4.47;1.27;;;;;;;;;;5067074;28;20107;-67
2024/01/22 11:02:23;;;;;;;3.47;1.33;;;;;;;;;;5074000;28;20379;-68
2024/01/22 11:05:14;;;;;;;3.58;1.40;;;;;;;;;;5071995;28;20025;-67
2024/01/22 11:07:40;;;;;;;1.70;1.17;;;;;;;;;;5073812;28;20032;-68
2024/01/22 11:10:09;;;;;;;3.25;1.58;;;;;;;;;;5072721;28;20059;-67
2024/01/22 11:12:43;;;;;;;1.75;1.17;;;;;;;;;;5073391;28;20020;-68
2024/01/22 11:15:09;;;;;;;1.70;1.13;;;;;;;;;;5074167;28;20101;-67
2024/01/22 11:17:34;;;;;;;2.88;1.20;;;;;;;;;;5074246;28;20063;-67
2024/01/22 11:20:20;;;;;;;2.13;1.40;;;;;;;;;;5074068;28;20445;-67
2024/01/22 11:23:13;;;;;;;4.15;1.60;;;;;;;;;;5073965;28;20490;-68
2024/01/22 11:25:39;;;;;;;2.67;1.20;;;;;;;;;;5073612;28;20036;-67
2024/01/22 11:28:09;;;;;;;4.25;1.45;;;;;;;;;;5073788;28;20025;-67
2024/01/22 11:30:42;;;;;;;1.88;1.33;;;;;;;;;;5052352;28;20021;-67
2024/01/22 11:33:22;;;;;;;3.75;1.30;;;;;;;;;;5052556;28;20037;-67
2024/01/22 11:35:48;;;;;;;2.90;1.50;;;;;;;;;;5053815;28;20058;-67
2024/01/22 11:38:14;;;;;;;2.63;1.45;;;;;;;;;;5053796;28;20025;-67
2024/01/22 11:40:47;;;;;;;2.47;1.55;;;;;;;;;;5053664;28;20048;-67
2024/01/22 11:43:17;;;;;;;7.10;2.60;;;;;;;;;;5053301;28;20060;-67
2024/01/22 11:45:46;;;;;;;4.97;1.23;;;;;;;;;;5072622;28;20055;-67
2024/01/22 11:48:16;;;;;;;2.33;1.20;;;;;;;;;;5073429;28;20032;-67
2024/01/22 11:50:43;;;;;;;2.13;1.27;;;;;;;;;;5072486;28;20478;-67
2024/01/22 11:53:08;;;;;;;3.28;1.20;;;;;;;;;;5050188;28;20531;-67
2024/01/22 11:55:34;;;;;;;3.13;1.20;;;;;;;;;;5052723;28;20119;-67
2024/01/22 11:57:59;;;;;;;2.92;1.40;;;;;;;;;;5052643;28;20036;-67
2024/01/22 12:00:25;;;;;;;1.70;1.17;;;;;;;;;;5044119;28;20037;-67
2024/01/22 12:02:51;;;;;;;2.28;1.35;;;;;;;;;;5032809;28;20030;-68
2024/01/22 12:05:17;;;;;;;4.20;1.60;;;;;;;;;;5014646;28;20021;-67
2024/01/22 12:07:45;;;;;;;2.60;1.45;;;;;;;;;;5014890;28;20172;-67
2024/01/22 12:10:20;;;;;;;3.53;1.30;;;;;;;;;;5032476;28;20026;-67
2024/01/22 12:13:04;;;;;;;1.70;1.35;;;;;;;;;;5032579;28;20054;-67
2024/01/22 12:15:32;;;;;;;2.80;1.30;;;;;;;;;;5032296;28;20056;-67
2024/01/22 12:17:57;;;;;;;1.90;1.10;;;;;;;;;;5032548;28;20083;-67
2024/01/22 12:20:25;;;;;;;2.72;1.20;;;;;;;;;;5032433;28;20049;-67
2024/01/22 12:23:04;;;;;;;4.38;1.27;;;;;;;;;;5032345;28;20033;-67
2024/01/22 12:25:40;;;;;;;2.47;1.40;;;;;;;;;;5044377;28;20155;-67
2024/01/22 12:28:13;;;;;;;1.33;1.08;;;;;;;;;;5052306;28;20025;-67
2024/01/22 12:30:39;;;;;;;3.42;1.20;;;;;;;;;;5034171;28;20048;-67
2024/01/22 12:33:05;;;;;;;1.90;1.20;;;;;;;;;;5032325;28;20025;-67
2024/01/22 12:35:30;;;;;;;4.05;1.48;;;;;;;;;;5032052;28;20039;-67
2024/01/22 12:37:55;;;;;;;1.98;1.33;;;;;;;;;;5049807;28;20380;-67
2024/01/22 12:40:23;;;;;;;2.72;1.20;;;;;;;;;;5052270;28;20051;-67
2024/01/22 12:42:50;;;;;;;2.85;1.27;;;;;;;;;;5052672;28;20094;-67
2024/01/22 12:45:19;;;;;;;3.83;1.85;;;;;;;;;;5052100;28;20025;-67
2024/01/22 12:47:48;;;;;;;1.63;1.05;;;;;;;;;;5052303;28;20115;-67
2024/01/22 12:50:17;;;;;;;3.65;1.45;;;;;;;;;;5051982;28;20047;-67
2024/01/22 12:52:43;;;;;;;1.80;1.13;;;;;;;;;;5053450;28;20067;-67
2024/01/22 12:55:09;;;;;;;3.03;1.70;;;;;;;;;;5072176;28;20053;-67
2024/01/22 12:57:35;;;;;;;2.88;1.60;;;;;;;;;;5072330;28;20035;-67
2024/01/22 13:00:04;;;;;;;2.10;1.15;;;;;;;;;;5071958;28;20456;-67
2024/01/22 13:02:30;;;;;;;3.20;1.13;;;;;;;;;;5071016;28;20043;-67
2024/01/22 13:04:55;;;;;;;1.92;1.10;;;;;;;;;;5072119;28;20032;-67
2024/01/22 13:07:21;;;;;;;5.13;1.65;;;;;;;;;;5072389;28;20036;-67
2024/01/22 13:09:46;;;;;;;1.80;1.10;;;;;;;;;;5071661;28;20021;-67
2024/01/22 13:12:11;;;;;;;1.33;0.90;;;;;;;;;;5071990;28;20117;-67
2024/01/22 13:14:37;;;;;;;2.20;1.10;;;;;;;;;;5071937;28;20103;-67
2024/01/22 13:17:04;;;;;;;3.38;1.30;;;;;;;;;;5072062;28;20036;-67
2024/01/22 13:19:31;;;;;;;2.45;1.45;;;;;;;;;;5054045;28;20024;-67
2024/01/22 13:21:58;;;;;;;3.22;1.20;;;;;;;;;;5071791;28;20012;-67
2024/01/22 13:24:25;;;;;;;3.53;1.45;;;;;;;;;;5071716;28;20028;-67
2024/01/22 13:26:50;;;;;;;5.75;1.67;;;;;;;;;;5071771;28;20028;-67
2024/01/22 13:29:16;;;;;;;2.35;1.30;;;;;;;;;;5075466;28;20039;-67
2024/01/22 13:31:41;;;;;;;2.97;1.38;;;;;;;;;;5076173;28;20020;-67
2024/01/22 13:34:07;;;;;;;3.22;1.50;;;;;;;;;;5076171;28;20074;-67
2024/01/22 13:36:33;;;;;;;3.22;1.20;;;;;;;;;;5075952;28;20032;-67
2024/01/22 13:38:58;;;;;;;2.42;1.35;;;;;;;;;;5075696;28;20100;-67
2024/01/22 13:41:29;;;;;;;2.05;1.30;;;;;;;;;;5075783;28;20017;-67
2024/01/22 13:43:54;;;;;;;2.28;1.13;;;;;;;;;;5075588;28;20066;-68
2024/01/22 13:46:20;;;;;;;3.72;1.55;;;;;;;;;;5075499;28;20032;-67
2024/01/22 13:48:46;;;;;;;6.45;1.25;;;;;;;;;;5075604;28;20064;-67
2024/01/22 13:51:12;;;;;;;2.28;1.25;;;;;;;;;;5075670;28;20035;-67
2024/01/22 13:53:37;;;;;;;4.13;1.45;;;;;;;;;;5075493;28;20045;-67
2024/01/22 13:56:03;;;;;;;2.30;1.35;;;;;;;;;;5075341;28;20020;-67
2024/01/22 13:58:28;;;;;;;2.10;1.00;;;;;;;;;;5075475;28;20068;-67
2024/01/22 14:00:54;;;;;;;1.70;1.08;;;;;;;;;;5075174;28;20029;-67
2024/01/22 14:03:19;;;;;;;2.60;1.45;;;;;;;;;;5075410;28;20029;-67
2024/01/22 14:05:45;;;;;;;3.10;1.35;;;;;;;;;;5057431;28;20021;-67
2024/01/22 14:08:10;;;;;;;4.00;1.55;;;;;;;;;;5075020;28;20028;-68
2024/01/22 14:10:36;;;;;;;3.03;1.33;;;;;;;;;;5075268;28;20035;-68
2024/01/22 14:13:01;;;;;;;3.67;1.45;;;;;;;;;;5075415;28;20025;-69
2024/01/22 14:15:26;;;;;;;4.60;1.60;;;;;;;;;;5075273;28;20124;-69
2024/01/22 14:17:52;;;;;;;3.33;1.85;;;;;;;;;;5075290;28;20108;-69
2024/01/22 14:20:18;;;;;;;2.03;1.13;;;;;;;;;;5075089;28;20036;-69
2024/01/22 14:22:43;;;;;;;2.55;1.17;;;;;;;;;;5075039;28;20020;-69
2024/01/22 14:25:10;;;;;;;1.98;1.10;;;;;;;;;;5075061;28;20074;-69
2024/01/22 14:27:36;;;;;;;2.42;1.30;;;;;;;;;;5075070;28;20032;-69
2024/01/22 14:30:02;;;;;;;3.25;1.35;;;;;;;;;;5074699;28;20040;-69
2024/01/22 14:32:28;;;;;;;2.47;1.20;;;;;;;;;;5075040;28;20445;-68
2024/01/22 14:34:54;;;;;;;3.30;1.20;;;;;;;;;;5074903;28;20085;-69
2024/01/22 14:37:20;;;;;;;2.15;1.30;;;;;;;;;;5074580;28;20032;-69
2024/01/22 14:39:45;;;;;;;3.60;1.50;;;;;;;;;;5074735;28;20029;-69